sensor_id;sensor_type;location;lat;lon;timestamp;P1;durP1;ratioP1;P2;durP2;ratioP2
9759;SDS011;4919;48.792;9.202;2022-12-07T00:01:16;20.47;;;10.03;;
9759;SDS011;4919;48.792;9.202;2022-12-07T00:03:48;21.77;;;9.33;;
9759;SDS011;4919;48.792;9.202;2022-12-07T00:06:18;19.33;;;10.33;;
9759;SDS011;4919;48.792;9.202;2022-12-07T00:08:46;20.33;;;10.57;;
9759;SDS011;4919;48.792;9.202;2022-12-07T00:11:14;19.10;;;9.40;;
9759;SDS011;4919;48.792;9.202;2022-12-07T00:13:43;20.53;;;10.23;;
9759;SDS011;4919;48.792;9.202;2022-12-07T00:16:12;19.57;;;9.63;;
9759;SDS011;4919;48.792;9.202;2022-12-07T00:18:41;20.43;;;10.10;;
9759;SDS011;4919;48.792;9.202;2022-12-07T00:21:12;16.33;;;9.50;;
9759;SDS011;4919;48.792;9.202;2022-12-07T00:23:41;17.10;;;9.77;;
9759;SDS011;4919;48.792;9.202;2022-12-07T00:26:09;18.60;;;9.93;;
9759;SDS011;4919;48.792;9.202;2022-12-07T00:28:47;18.93;;;9.60;;
9759;SDS011;4919;48.792;9.202;2022-12-07T00:31:15;17.57;;;9.00;;
9759;SDS011;4919;48.792;9.202;2022-12-07T00:33:44;17.60;;;9.17;;
9759;SDS011;4919;48.792;9.202;2022-12-07T00:36:13;17.50;;;9.43;;
9759;SDS011;4919;48.792;9.202;2022-12-07T00:38:47;13.90;;;9.00;;
9759;SDS011;4919;48.792;9.202;2022-12-07T00:41:17;16.67;;;9.40;;
9759;SDS011;4919;48.792;9.202;2022-12-07T00:43:47;15.27;;;8.93;;
9759;SDS011;4919;48.792;9.202;2022-12-07T00:46:15;14.20;;;8.33;;
9759;SDS011;4919;48.792;9.202;2022-12-07T00:48:43;14.83;;;9.20;;
9759;SDS011;4919;48.792;9.202;2022-12-07T00:51:14;16.30;;;9.37;;
9759;SDS011;4919;48.792;9.202;2022-12-07T00:53:42;14.97;;;8.80;;
9759;SDS011;4919;48.792;9.202;2022-12-07T00:56:10;13.40;;;8.27;;
9759;SDS011;4919;48.792;9.202;2022-12-07T00:58:39;12.77;;;7.77;;
9759;SDS011;4919;48.792;9.202;2022-12-07T01:01:06;15.07;;;8.43;;
9759;SDS011;4919;48.792;9.202;2022-12-07T01:03:34;12.33;;;7.50;;
9759;SDS011;4919;48.792;9.202;2022-12-07T01:06:03;14.30;;;8.63;;
9759;SDS011;4919;48.792;9.202;2022-12-07T01:08:30;12.67;;;8.20;;
9759;SDS011;4919;48.792;9.202;2022-12-07T01:11:01;14.23;;;8.00;;
9759;SDS011;4919;48.792;9.202;2022-12-07T01:13:34;13.43;;;7.80;;
9759;SDS011;4919;48.792;9.202;2022-12-07T01:16:02;10.87;;;7.30;;
9759;SDS011;4919;48.792;9.202;2022-12-07T01:18:32;11.73;;;7.87;;
9759;SDS011;4919;48.792;9.202;2022-12-07T01:21:05;11.03;;;7.00;;
9759;SDS011;4919;48.792;9.202;2022-12-07T01:23:35;9.67;;;6.67;;
9759;SDS011;4919;48.792;9.202;2022-12-07T01:26:03;11.37;;;6.57;;
9759;SDS011;4919;48.792;9.202;2022-12-07T01:28:32;11.00;;;6.80;;
9759;SDS011;4919;48.792;9.202;2022-12-07T01:33:29;10.53;;;6.60;;
9759;SDS011;4919;48.792;9.202;2022-12-07T01:36:05;11.53;;;6.50;;
9759;SDS011;4919;48.792;9.202;2022-12-07T01:38:43;11.40;;;6.80;;
9759;SDS011;4919;48.792;9.202;2022-12-07T01:41:11;11.27;;;7.13;;
9759;SDS011;4919;48.792;9.202;2022-12-07T01:46:36;9.87;;;6.60;;
9759;SDS011;4919;48.792;9.202;2022-12-07T01:49:08;10.30;;;6.30;;
9759;SDS011;4919;48.792;9.202;2022-12-07T01:51:40;10.50;;;6.63;;
9759;SDS011;4919;48.792;9.202;2022-12-07T01:54:09;11.13;;;7.03;;
9759;SDS011;4919;48.792;9.202;2022-12-07T01:56:39;10.17;;;6.37;;
9759;SDS011;4919;48.792;9.202;2022-12-07T01:59:08;10.03;;;6.13;;
9759;SDS011;4919;48.792;9.202;2022-12-07T02:01:35;9.03;;;6.40;;
9759;SDS011;4919;48.792;9.202;2022-12-07T02:04:02;9.07;;;6.03;;
9759;SDS011;4919;48.792;9.202;2022-12-07T02:06:30;10.03;;;6.77;;
9759;SDS011;4919;48.792;9.202;2022-12-07T02:08:57;8.60;;;6.10;;
9759;SDS011;4919;48.792;9.202;2022-12-07T02:11:24;9.60;;;6.80;;
9759;SDS011;4919;48.792;9.202;2022-12-07T02:13:51;9.13;;;6.00;;
9759;SDS011;4919;48.792;9.202;2022-12-07T02:28:33;9.30;;;6.13;;
9759;SDS011;4919;48.792;9.202;2022-12-07T02:31:04;9.20;;;5.93;;
9759;SDS011;4919;48.792;9.202;2022-12-07T02:33:43;9.53;;;6.00;;
9759;SDS011;4919;48.792;9.202;2022-12-07T02:38:55;8.37;;;5.80;;
9759;SDS011;4919;48.792;9.202;2022-12-07T02:41:36;9.33;;;6.03;;
9759;SDS011;4919;48.792;9.202;2022-12-07T02:44:07;8.13;;;5.50;;
9759;SDS011;4919;48.792;9.202;2022-12-07T02:46:42;8.07;;;5.40;;
9759;SDS011;4919;48.792;9.202;2022-12-07T02:49:15;9.23;;;5.60;;
9759;SDS011;4919;48.792;9.202;2022-12-07T02:51:43;7.73;;;5.50;;
9759;SDS011;4919;48.792;9.202;2022-12-07T02:54:13;8.43;;;5.67;;
9759;SDS011;4919;48.792;9.202;2022-12-07T03:07:13;7.87;;;5.33;;
9759;SDS011;4919;48.792;9.202;2022-12-07T03:09:55;7.23;;;5.17;;
9759;SDS011;4919;48.792;9.202;2022-12-07T03:12:40;8.43;;;5.53;;
9759;SDS011;4919;48.792;9.202;2022-12-07T03:15:14;9.43;;;5.60;;
9759;SDS011;4919;48.792;9.202;2022-12-07T03:17:48;7.90;;;5.43;;
9759;SDS011;4919;48.792;9.202;2022-12-07T03:20:17;8.10;;;5.57;;
9759;SDS011;4919;48.792;9.202;2022-12-07T03:22:47;7.37;;;5.17;;
9759;SDS011;4919;48.792;9.202;2022-12-07T03:25:15;9.13;;;5.03;;
9759;SDS011;4919;48.792;9.202;2022-12-07T03:27:52;10.07;;;5.80;;
9759;SDS011;4919;48.792;9.202;2022-12-07T03:30:29;9.40;;;6.27;;
9759;SDS011;4919;48.792;9.202;2022-12-07T03:33:28;10.83;;;6.50;;
9759;SDS011;4919;48.792;9.202;2022-12-07T03:38:38;9.03;;;5.53;;
9759;SDS011;4919;48.792;9.202;2022-12-07T03:41:12;9.77;;;6.10;;
9759;SDS011;4919;48.792;9.202;2022-12-07T03:43:45;10.40;;;6.23;;
9759;SDS011;4919;48.792;9.202;2022-12-07T03:46:35;10.83;;;6.17;;
9759;SDS011;4919;48.792;9.202;2022-12-07T03:49:29;10.10;;;6.50;;
9759;SDS011;4919;48.792;9.202;2022-12-07T03:54:36;11.70;;;6.63;;
9759;SDS011;4919;48.792;9.202;2022-12-07T03:57:14;9.93;;;6.93;;
9759;SDS011;4919;48.792;9.202;2022-12-07T03:59:41;11.53;;;7.20;;
9759;SDS011;4919;48.792;9.202;2022-12-07T04:02:10;13.20;;;7.63;;
9759;SDS011;4919;48.792;9.202;2022-12-07T04:04:39;13.07;;;7.50;;
9759;SDS011;4919;48.792;9.202;2022-12-07T04:07:06;15.60;;;8.17;;
9759;SDS011;4919;48.792;9.202;2022-12-07T04:09:32;12.07;;;7.23;;
9759;SDS011;4919;48.792;9.202;2022-12-07T04:11:59;12.90;;;8.07;;
9759;SDS011;4919;48.792;9.202;2022-12-07T04:14:26;13.37;;;8.33;;
9759;SDS011;4919;48.792;9.202;2022-12-07T04:16:55;13.77;;;8.70;;
9759;SDS011;4919;48.792;9.202;2022-12-07T04:19:23;13.70;;;8.40;;
9759;SDS011;4919;48.792;9.202;2022-12-07T04:21:53;14.77;;;8.83;;
9759;SDS011;4919;48.792;9.202;2022-12-07T04:24:21;14.60;;;8.13;;
9759;SDS011;4919;48.792;9.202;2022-12-07T04:26:48;12.67;;;7.70;;
9759;SDS011;4919;48.792;9.202;2022-12-07T04:29:16;15.27;;;8.87;;
9759;SDS011;4919;48.792;9.202;2022-12-07T04:31:44;17.73;;;8.90;;
9759;SDS011;4919;48.792;9.202;2022-12-07T04:34:11;15.87;;;9.47;;
9759;SDS011;4919;48.792;9.202;2022-12-07T04:36:39;17.60;;;9.97;;
9759;SDS011;4919;48.792;9.202;2022-12-07T04:39:07;18.30;;;9.87;;
9759;SDS011;4919;48.792;9.202;2022-12-07T04:41:39;18.07;;;10.43;;
9759;SDS011;4919;48.792;9.202;2022-12-07T04:44:06;17.73;;;9.80;;
9759;SDS011;4919;48.792;9.202;2022-12-07T04:46:33;20.50;;;11.20;;
9759;SDS011;4919;48.792;9.202;2022-12-07T04:49:00;19.90;;;10.87;;
9759;SDS011;4919;48.792;9.202;2022-12-07T04:51:28;22.23;;;12.17;;
9759;SDS011;4919;48.792;9.202;2022-12-07T04:53:55;21.90;;;11.87;;
9759;SDS011;4919;48.792;9.202;2022-12-07T04:56:23;20.43;;;12.13;;
9759;SDS011;4919;48.792;9.202;2022-12-07T04:58:51;22.23;;;11.37;;
9759;SDS011;4919;48.792;9.202;2022-12-07T05:01:19;22.67;;;11.80;;
9759;SDS011;4919;48.792;9.202;2022-12-07T05:03:47;23.77;;;12.27;;
9759;SDS011;4919;48.792;9.202;2022-12-07T05:06:14;24.87;;;12.13;;
9759;SDS011;4919;48.792;9.202;2022-12-07T05:08:41;21.40;;;11.40;;
9759;SDS011;4919;48.792;9.202;2022-12-07T05:11:09;28.83;;;13.17;;
9759;SDS011;4919;48.792;9.202;2022-12-07T05:14:00;27.40;;;13.27;;
9759;SDS011;4919;48.792;9.202;2022-12-07T05:16:28;27.17;;;12.50;;
9759;SDS011;4919;48.792;9.202;2022-12-07T05:18:55;25.47;;;12.57;;
9759;SDS011;4919;48.792;9.202;2022-12-07T05:21:22;24.20;;;12.23;;
9759;SDS011;4919;48.792;9.202;2022-12-07T05:23:49;24.70;;;12.73;;
9759;SDS011;4919;48.792;9.202;2022-12-07T05:26:16;27.63;;;13.20;;
9759;SDS011;4919;48.792;9.202;2022-12-07T05:28:44;27.30;;;14.13;;
9759;SDS011;4919;48.792;9.202;2022-12-07T05:31:10;27.93;;;13.43;;
9759;SDS011;4919;48.792;9.202;2022-12-07T05:33:38;25.53;;;12.77;;
9759;SDS011;4919;48.792;9.202;2022-12-07T05:36:04;25.07;;;12.87;;
9759;SDS011;4919;48.792;9.202;2022-12-07T05:38:33;24.80;;;12.53;;
9759;SDS011;4919;48.792;9.202;2022-12-07T05:41:01;26.73;;;13.33;;
9759;SDS011;4919;48.792;9.202;2022-12-07T05:43:29;28.83;;;14.40;;
9759;SDS011;4919;48.792;9.202;2022-12-07T05:45:56;31.33;;;13.63;;
9759;SDS011;4919;48.792;9.202;2022-12-07T05:48:24;30.47;;;13.67;;
9759;SDS011;4919;48.792;9.202;2022-12-07T05:50:51;26.73;;;13.07;;
9759;SDS011;4919;48.792;9.202;2022-12-07T05:53:19;30.20;;;14.60;;
9759;SDS011;4919;48.792;9.202;2022-12-07T05:55:48;28.47;;;14.77;;
9759;SDS011;4919;48.792;9.202;2022-12-07T05:58:15;30.57;;;14.13;;
9759;SDS011;4919;48.792;9.202;2022-12-07T06:01:01;28.77;;;14.67;;
9759;SDS011;4919;48.792;9.202;2022-12-07T06:03:28;30.93;;;15.20;;
9759;SDS011;4919;48.792;9.202;2022-12-07T06:05:55;32.10;;;14.30;;
9759;SDS011;4919;48.792;9.202;2022-12-07T06:08:22;31.50;;;14.77;;
9759;SDS011;4919;48.792;9.202;2022-12-07T06:10:49;37.73;;;15.90;;
9759;SDS011;4919;48.792;9.202;2022-12-07T06:13:38;32.37;;;15.60;;
9759;SDS011;4919;48.792;9.202;2022-12-07T06:16:12;34.40;;;15.63;;
9759;SDS011;4919;48.792;9.202;2022-12-07T06:18:39;32.37;;;15.57;;
9759;SDS011;4919;48.792;9.202;2022-12-07T06:21:06;34.40;;;15.57;;
9759;SDS011;4919;48.792;9.202;2022-12-07T06:23:33;30.97;;;14.60;;
9759;SDS011;4919;48.792;9.202;2022-12-07T06:26:00;35.00;;;16.10;;
9759;SDS011;4919;48.792;9.202;2022-12-07T06:28:27;36.00;;;16.47;;
9759;SDS011;4919;48.792;9.202;2022-12-07T06:31:00;36.20;;;16.23;;
9759;SDS011;4919;48.792;9.202;2022-12-07T06:33:28;37.20;;;17.20;;
9759;SDS011;4919;48.792;9.202;2022-12-07T06:35:55;37.97;;;16.57;;
9759;SDS011;4919;48.792;9.202;2022-12-07T06:38:22;38.73;;;15.83;;
9759;SDS011;4919;48.792;9.202;2022-12-07T06:40:49;37.37;;;17.03;;
9759;SDS011;4919;48.792;9.202;2022-12-07T06:43:16;34.67;;;16.40;;
9759;SDS011;4919;48.792;9.202;2022-12-07T06:45:43;34.17;;;15.97;;
9759;SDS011;4919;48.792;9.202;2022-12-07T06:48:09;32.87;;;16.40;;
9759;SDS011;4919;48.792;9.202;2022-12-07T06:50:37;31.20;;;15.80;;
9759;SDS011;4919;48.792;9.202;2022-12-07T06:53:03;36.33;;;15.70;;
9759;SDS011;4919;48.792;9.202;2022-12-07T06:55:30;35.03;;;15.63;;
9759;SDS011;4919;48.792;9.202;2022-12-07T06:57:57;31.63;;;15.60;;
9759;SDS011;4919;48.792;9.202;2022-12-07T07:00:24;34.37;;;17.10;;
9759;SDS011;4919;48.792;9.202;2022-12-07T07:02:51;35.60;;;16.13;;
9759;SDS011;4919;48.792;9.202;2022-12-07T07:05:18;39.30;;;17.93;;
9759;SDS011;4919;48.792;9.202;2022-12-07T07:07:48;34.23;;;16.40;;
9759;SDS011;4919;48.792;9.202;2022-12-07T07:10:36;33.50;;;15.03;;
9759;SDS011;4919;48.792;9.202;2022-12-07T07:13:03;36.37;;;16.27;;
9759;SDS011;4919;48.792;9.202;2022-12-07T07:15:31;36.33;;;16.83;;
9759;SDS011;4919;48.792;9.202;2022-12-07T07:17:59;34.77;;;17.20;;
9759;SDS011;4919;48.792;9.202;2022-12-07T07:20:33;33.93;;;16.00;;
9759;SDS011;4919;48.792;9.202;2022-12-07T07:22:59;34.50;;;16.37;;
9759;SDS011;4919;48.792;9.202;2022-12-07T07:25:26;36.07;;;17.43;;
9759;SDS011;4919;48.792;9.202;2022-12-07T07:27:53;34.80;;;16.80;;
9759;SDS011;4919;48.792;9.202;2022-12-07T07:30:20;36.00;;;17.27;;
9759;SDS011;4919;48.792;9.202;2022-12-07T07:32:47;36.67;;;16.30;;
9759;SDS011;4919;48.792;9.202;2022-12-07T07:35:14;39.80;;;17.20;;
9759;SDS011;4919;48.792;9.202;2022-12-07T07:37:42;33.77;;;16.40;;
9759;SDS011;4919;48.792;9.202;2022-12-07T07:40:09;36.27;;;16.57;;
9759;SDS011;4919;48.792;9.202;2022-12-07T07:42:37;34.70;;;16.97;;
9759;SDS011;4919;48.792;9.202;2022-12-07T07:45:04;37.20;;;16.73;;
9759;SDS011;4919;48.792;9.202;2022-12-07T07:47:31;34.17;;;16.37;;
9759;SDS011;4919;48.792;9.202;2022-12-07T07:49:58;32.60;;;16.57;;
9759;SDS011;4919;48.792;9.202;2022-12-07T07:52:25;35.20;;;17.03;;
9759;SDS011;4919;48.792;9.202;2022-12-07T07:54:52;31.83;;;16.47;;
9759;SDS011;4919;48.792;9.202;2022-12-07T07:57:19;37.20;;;16.57;;
9759;SDS011;4919;48.792;9.202;2022-12-07T07:59:46;33.10;;;16.23;;
9759;SDS011;4919;48.792;9.202;2022-12-07T08:02:13;30.80;;;15.40;;
9759;SDS011;4919;48.792;9.202;2022-12-07T08:04:42;29.27;;;14.57;;
9759;SDS011;4919;48.792;9.202;2022-12-07T08:07:09;31.90;;;14.23;;
9759;SDS011;4919;48.792;9.202;2022-12-07T08:09:37;28.50;;;14.13;;
9759;SDS011;4919;48.792;9.202;2022-12-07T08:12:04;31.47;;;14.67;;
9759;SDS011;4919;48.792;9.202;2022-12-07T08:14:31;28.70;;;14.70;;
9759;SDS011;4919;48.792;9.202;2022-12-07T08:16:59;26.80;;;13.83;;
9759;SDS011;4919;48.792;9.202;2022-12-07T08:19:26;27.53;;;13.67;;
9759;SDS011;4919;48.792;9.202;2022-12-07T08:21:53;28.00;;;14.00;;
9759;SDS011;4919;48.792;9.202;2022-12-07T08:24:21;24.80;;;13.17;;
9759;SDS011;4919;48.792;9.202;2022-12-07T08:26:49;28.47;;;13.70;;
9759;SDS011;4919;48.792;9.202;2022-12-07T08:29:16;24.80;;;11.87;;
9759;SDS011;4919;48.792;9.202;2022-12-07T08:31:43;20.43;;;10.80;;
9759;SDS011;4919;48.792;9.202;2022-12-07T08:34:11;21.47;;;10.87;;
9759;SDS011;4919;48.792;9.202;2022-12-07T08:36:38;21.87;;;10.37;;
9759;SDS011;4919;48.792;9.202;2022-12-07T08:39:06;22.27;;;9.90;;
9759;SDS011;4919;48.792;9.202;2022-12-07T08:41:53;17.30;;;9.20;;
9759;SDS011;4919;48.792;9.202;2022-12-07T08:44:19;17.23;;;8.63;;
9759;SDS011;4919;48.792;9.202;2022-12-07T08:46:50;14.23;;;7.87;;
9759;SDS011;4919;48.792;9.202;2022-12-07T08:49:30;15.00;;;8.43;;
9759;SDS011;4919;48.792;9.202;2022-12-07T08:52:01;14.00;;;8.67;;
9759;SDS011;4919;48.792;9.202;2022-12-07T08:54:30;13.33;;;7.70;;
9759;SDS011;4919;48.792;9.202;2022-12-07T08:56:59;15.73;;;8.50;;
9759;SDS011;4919;48.792;9.202;2022-12-07T08:59:26;14.10;;;7.90;;
9759;SDS011;4919;48.792;9.202;2022-12-07T09:01:54;11.27;;;6.90;;
9759;SDS011;4919;48.792;9.202;2022-12-07T09:04:21;10.73;;;6.97;;
9759;SDS011;4919;48.792;9.202;2022-12-07T09:06:48;8.07;;;5.03;;
9759;SDS011;4919;48.792;9.202;2022-12-07T09:09:15;8.03;;;4.53;;
9759;SDS011;4919;48.792;9.202;2022-12-07T09:11:42;9.93;;;5.07;;
9759;SDS011;4919;48.792;9.202;2022-12-07T09:14:11;8.40;;;4.70;;
9759;SDS011;4919;48.792;9.202;2022-12-07T09:16:39;7.73;;;5.13;;
9759;SDS011;4919;48.792;9.202;2022-12-07T09:19:07;6.83;;;5.10;;
9759;SDS011;4919;48.792;9.202;2022-12-07T09:21:34;5.90;;;4.37;;
9759;SDS011;4919;48.792;9.202;2022-12-07T09:24:01;5.17;;;3.70;;
9759;SDS011;4919;48.792;9.202;2022-12-07T09:26:28;5.77;;;3.20;;
9759;SDS011;4919;48.792;9.202;2022-12-07T09:28:54;4.47;;;3.40;;
9759;SDS011;4919;48.792;9.202;2022-12-07T09:31:21;2.90;;;2.60;;
9759;SDS011;4919;48.792;9.202;2022-12-07T09:33:58;3.77;;;2.50;;
9759;SDS011;4919;48.792;9.202;2022-12-07T09:36:26;4.00;;;2.83;;
9759;SDS011;4919;48.792;9.202;2022-12-07T09:38:53;3.33;;;2.50;;
9759;SDS011;4919;48.792;9.202;2022-12-07T09:41:21;4.13;;;2.60;;
9759;SDS011;4919;48.792;9.202;2022-12-07T09:43:50;2.63;;;2.30;;
9759;SDS011;4919;48.792;9.202;2022-12-07T09:46:17;3.00;;;2.70;;
9759;SDS011;4919;48.792;9.202;2022-12-07T09:48:46;3.50;;;2.80;;
9759;SDS011;4919;48.792;9.202;2022-12-07T09:51:17;3.60;;;2.73;;
9759;SDS011;4919;48.792;9.202;2022-12-07T09:53:50;3.83;;;2.40;;
9759;SDS011;4919;48.792;9.202;2022-12-07T09:56:18;2.80;;;2.43;;
9759;SDS011;4919;48.792;9.202;2022-12-07T09:58:46;5.43;;;2.90;;
9759;SDS011;4919;48.792;9.202;2022-12-07T10:01:16;3.37;;;2.40;;
9759;SDS011;4919;48.792;9.202;2022-12-07T10:03:48;2.70;;;2.50;;
9759;SDS011;4919;48.792;9.202;2022-12-07T10:06:18;2.20;;;2.00;;
9759;SDS011;4919;48.792;9.202;2022-12-07T10:08:45;4.47;;;2.30;;
9759;SDS011;4919;48.792;9.202;2022-12-07T10:11:12;3.07;;;2.33;;
9759;SDS011;4919;48.792;9.202;2022-12-07T10:13:45;3.23;;;2.60;;
9759;SDS011;4919;48.792;9.202;2022-12-07T10:18:52;3.10;;;2.30;;
9759;SDS011;4919;48.792;9.202;2022-12-07T10:29:14;3.40;;;2.37;;
9759;SDS011;4919;48.792;9.202;2022-12-07T10:31:46;2.50;;;2.30;;
9759;SDS011;4919;48.792;9.202;2022-12-07T10:36:51;2.13;;;1.93;;
9759;SDS011;4919;48.792;9.202;2022-12-07T10:39:20;2.27;;;1.90;;
9759;SDS011;4919;48.792;9.202;2022-12-07T10:41:55;4.97;;;2.43;;
9759;SDS011;4919;48.792;9.202;2022-12-07T10:44:25;4.93;;;2.27;;
9759;SDS011;4919;48.792;9.202;2022-12-07T10:52:13;4.43;;;2.53;;
9759;SDS011;4919;48.792;9.202;2022-12-07T10:57:32;3.07;;;2.60;;
9759;SDS011;4919;48.792;9.202;2022-12-07T11:03:14;3.30;;;2.60;;
9759;SDS011;4919;48.792;9.202;2022-12-07T11:08:44;5.37;;;3.30;;
9759;SDS011;4919;48.792;9.202;2022-12-07T11:14:03;7.00;;;3.97;;
9759;SDS011;4919;48.792;9.202;2022-12-07T11:25:20;6.43;;;3.70;;
9759;SDS011;4919;48.792;9.202;2022-12-07T11:30:41;5.80;;;3.50;;
9759;SDS011;4919;48.792;9.202;2022-12-07T11:33:17;5.43;;;3.23;;
9759;SDS011;4919;48.792;9.202;2022-12-07T11:35:54;5.37;;;3.70;;
9759;SDS011;4919;48.792;9.202;2022-12-07T11:38:45;5.67;;;3.40;;
9759;SDS011;4919;48.792;9.202;2022-12-07T11:41:28;4.87;;;3.40;;
9759;SDS011;4919;48.792;9.202;2022-12-07T11:44:01;4.83;;;3.20;;
9759;SDS011;4919;48.792;9.202;2022-12-07T11:46:39;5.80;;;3.10;;
9759;SDS011;4919;48.792;9.202;2022-12-07T11:51:58;4.83;;;2.93;;
9759;SDS011;4919;48.792;9.202;2022-12-07T11:54:29;5.97;;;3.17;;
9759;SDS011;4919;48.792;9.202;2022-12-07T11:57:02;6.07;;;4.77;;
9759;SDS011;4919;48.792;9.202;2022-12-07T11:59:42;9.00;;;6.50;;
9759;SDS011;4919;48.792;9.202;2022-12-07T12:02:24;15.27;;;9.07;;
9759;SDS011;4919;48.792;9.202;2022-12-07T12:07:44;7.10;;;4.60;;
9759;SDS011;4919;48.792;9.202;2022-12-07T12:13:15;5.83;;;3.77;;
9759;SDS011;4919;48.792;9.202;2022-12-07T12:16:17;4.67;;;3.53;;
9759;SDS011;4919;48.792;9.202;2022-12-07T12:18:53;5.27;;;3.60;;
9759;SDS011;4919;48.792;9.202;2022-12-07T12:21:40;4.10;;;2.60;;
9759;SDS011;4919;48.792;9.202;2022-12-07T12:24:13;6.90;;;2.80;;
9759;SDS011;4919;48.792;9.202;2022-12-07T12:26:49;4.23;;;2.80;;
9759;SDS011;4919;48.792;9.202;2022-12-07T12:29:24;3.50;;;2.80;;
9759;SDS011;4919;48.792;9.202;2022-12-07T12:32:20;5.03;;;3.20;;
9759;SDS011;4919;48.792;9.202;2022-12-07T12:42:43;4.80;;;2.70;;
9759;SDS011;4919;48.792;9.202;2022-12-07T12:45:19;6.07;;;3.40;;
9759;SDS011;4919;48.792;9.202;2022-12-07T12:47:54;6.30;;;3.13;;
9759;SDS011;4919;48.792;9.202;2022-12-07T12:50:23;6.40;;;3.50;;
9759;SDS011;4919;48.792;9.202;2022-12-07T12:52:56;9.50;;;4.10;;
9759;SDS011;4919;48.792;9.202;2022-12-07T13:00:44;4.70;;;2.40;;
9759;SDS011;4919;48.792;9.202;2022-12-07T13:03:21;4.90;;;2.70;;
9759;SDS011;4919;48.792;9.202;2022-12-07T13:08:56;4.47;;;2.77;;
9759;SDS011;4919;48.792;9.202;2022-12-07T13:20:00;5.37;;;2.37;;
9759;SDS011;4919;48.792;9.202;2022-12-07T13:28:07;4.07;;;2.50;;
9759;SDS011;4919;48.792;9.202;2022-12-07T13:30:42;3.53;;;2.50;;
9759;SDS011;4919;48.792;9.202;2022-12-07T13:33:37;5.17;;;2.30;;
9759;SDS011;4919;48.792;9.202;2022-12-07T13:36:04;5.23;;;2.40;;
9759;SDS011;4919;48.792;9.202;2022-12-07T13:38:36;2.77;;;2.20;;
9759;SDS011;4919;48.792;9.202;2022-12-07T13:41:04;4.50;;;2.10;;
9759;SDS011;4919;48.792;9.202;2022-12-07T13:43:43;5.80;;;2.20;;
9759;SDS011;4919;48.792;9.202;2022-12-07T13:46:15;6.47;;;2.73;;
9759;SDS011;4919;48.792;9.202;2022-12-07T13:48:47;3.60;;;2.00;;
9759;SDS011;4919;48.792;9.202;2022-12-07T13:53:47;4.67;;;2.10;;
9759;SDS011;4919;48.792;9.202;2022-12-07T13:56:20;6.83;;;2.10;;
9759;SDS011;4919;48.792;9.202;2022-12-07T13:58:48;4.37;;;1.93;;
9759;SDS011;4919;48.792;9.202;2022-12-07T14:01:15;3.80;;;1.87;;
9759;SDS011;4919;48.792;9.202;2022-12-07T14:03:43;2.20;;;1.90;;
9759;SDS011;4919;48.792;9.202;2022-12-07T14:08:42;4.33;;;2.00;;
9759;SDS011;4919;48.792;9.202;2022-12-07T14:11:12;3.83;;;1.90;;
9759;SDS011;4919;48.792;9.202;2022-12-07T14:14:10;3.97;;;2.13;;
9759;SDS011;4919;48.792;9.202;2022-12-07T14:16:33;7.27;;;2.13;;
9759;SDS011;4919;48.792;9.202;2022-12-07T14:19:03;5.70;;;2.40;;
9759;SDS011;4919;48.792;9.202;2022-12-07T14:21:32;6.83;;;2.63;;
9759;SDS011;4919;48.792;9.202;2022-12-07T14:26:44;2.93;;;1.97;;
9759;SDS011;4919;48.792;9.202;2022-12-07T14:29:28;3.90;;;2.23;;
9759;SDS011;4919;48.792;9.202;2022-12-07T14:31:58;4.97;;;2.97;;
9759;SDS011;4919;48.792;9.202;2022-12-07T14:34:56;4.50;;;2.90;;
9759;SDS011;4919;48.792;9.202;2022-12-07T14:37:28;7.83;;;3.83;;
9759;SDS011;4919;48.792;9.202;2022-12-07T14:39:56;5.00;;;2.77;;
9759;SDS011;4919;48.792;9.202;2022-12-07T14:42:23;8.77;;;2.80;;
9759;SDS011;4919;48.792;9.202;2022-12-07T14:44:54;7.67;;;2.67;;
9759;SDS011;4919;48.792;9.202;2022-12-07T14:47:21;6.53;;;3.03;;
9759;SDS011;4919;48.792;9.202;2022-12-07T14:50:10;8.07;;;3.27;;
9759;SDS011;4919;48.792;9.202;2022-12-07T14:52:39;6.80;;;3.93;;
9759;SDS011;4919;48.792;9.202;2022-12-07T14:55:27;7.70;;;4.20;;
9759;SDS011;4919;48.792;9.202;2022-12-07T14:57:58;5.77;;;3.20;;
9759;SDS011;4919;48.792;9.202;2022-12-07T15:00:25;7.20;;;3.67;;
9759;SDS011;4919;48.792;9.202;2022-12-07T15:02:53;4.70;;;3.10;;
9759;SDS011;4919;48.792;9.202;2022-12-07T15:05:21;6.27;;;3.70;;
9759;SDS011;4919;48.792;9.202;2022-12-07T15:07:48;7.03;;;3.90;;
9759;SDS011;4919;48.792;9.202;2022-12-07T15:10:20;7.03;;;3.60;;
9759;SDS011;4919;48.792;9.202;2022-12-07T15:12:50;4.70;;;3.53;;
9759;SDS011;4919;48.792;9.202;2022-12-07T15:15:17;5.87;;;3.07;;
9759;SDS011;4919;48.792;9.202;2022-12-07T15:17:44;4.93;;;3.10;;
9759;SDS011;4919;48.792;9.202;2022-12-07T15:20:12;5.83;;;2.87;;
9759;SDS011;4919;48.792;9.202;2022-12-07T15:22:40;7.13;;;3.57;;
9759;SDS011;4919;48.792;9.202;2022-12-07T15:25:08;6.20;;;3.40;;
9759;SDS011;4919;48.792;9.202;2022-12-07T15:27:38;9.23;;;3.40;;
9759;SDS011;4919;48.792;9.202;2022-12-07T15:30:05;8.20;;;3.70;;
9759;SDS011;4919;48.792;9.202;2022-12-07T15:32:32;6.77;;;2.90;;
9759;SDS011;4919;48.792;9.202;2022-12-07T15:34:59;9.27;;;5.13;;
9759;SDS011;4919;48.792;9.202;2022-12-07T15:37:27;11.33;;;3.60;;
9759;SDS011;4919;48.792;9.202;2022-12-07T15:39:54;7.27;;;3.00;;
9759;SDS011;4919;48.792;9.202;2022-12-07T15:42:21;6.10;;;3.10;;
9759;SDS011;4919;48.792;9.202;2022-12-07T15:44:48;5.53;;;3.10;;
9759;SDS011;4919;48.792;9.202;2022-12-07T15:47:34;6.30;;;2.93;;
9759;SDS011;4919;48.792;9.202;2022-12-07T15:50:22;9.50;;;3.60;;
9759;SDS011;4919;48.792;9.202;2022-12-07T15:52:49;8.00;;;4.40;;
9759;SDS011;4919;48.792;9.202;2022-12-07T15:55:16;6.07;;;3.40;;
9759;SDS011;4919;48.792;9.202;2022-12-07T15:57:43;4.80;;;3.27;;
9759;SDS011;4919;48.792;9.202;2022-12-07T16:00:10;10.70;;;3.47;;
9759;SDS011;4919;48.792;9.202;2022-12-07T16:02:38;6.40;;;3.30;;
9759;SDS011;4919;48.792;9.202;2022-12-07T16:05:05;9.67;;;3.10;;
9759;SDS011;4919;48.792;9.202;2022-12-07T16:07:32;5.87;;;2.90;;
9759;SDS011;4919;48.792;9.202;2022-12-07T16:09:59;8.40;;;3.10;;
9759;SDS011;4919;48.792;9.202;2022-12-07T16:12:26;6.47;;;3.23;;
9759;SDS011;4919;48.792;9.202;2022-12-07T16:14:53;5.33;;;3.07;;
9759;SDS011;4919;48.792;9.202;2022-12-07T16:17:20;8.80;;;3.03;;
9759;SDS011;4919;48.792;9.202;2022-12-07T16:19:46;6.53;;;2.97;;
9759;SDS011;4919;48.792;9.202;2022-12-07T16:22:13;8.43;;;3.00;;
9759;SDS011;4919;48.792;9.202;2022-12-07T16:24:40;4.07;;;2.90;;
9759;SDS011;4919;48.792;9.202;2022-12-07T16:27:07;7.17;;;3.10;;
9759;SDS011;4919;48.792;9.202;2022-12-07T16:29:34;7.73;;;3.00;;
9759;SDS011;4919;48.792;9.202;2022-12-07T16:32:01;3.27;;;2.67;;
9759;SDS011;4919;48.792;9.202;2022-12-07T16:34:27;11.03;;;3.53;;
9759;SDS011;4919;48.792;9.202;2022-12-07T16:36:54;11.10;;;3.10;;
9759;SDS011;4919;48.792;9.202;2022-12-07T16:39:31;6.33;;;3.40;;
9759;SDS011;4919;48.792;9.202;2022-12-07T16:41:59;12.57;;;4.60;;
9759;SDS011;4919;48.792;9.202;2022-12-07T16:44:26;16.63;;;7.77;;
9759;SDS011;4919;48.792;9.202;2022-12-07T16:46:54;7.73;;;2.97;;
9759;SDS011;4919;48.792;9.202;2022-12-07T16:49:21;9.03;;;4.10;;
9759;SDS011;4919;48.792;9.202;2022-12-07T16:51:50;7.33;;;4.13;;
9759;SDS011;4919;48.792;9.202;2022-12-07T16:54:37;7.40;;;4.10;;
9759;SDS011;4919;48.792;9.202;2022-12-07T16:57:04;8.17;;;4.40;;
9759;SDS011;4919;48.792;9.202;2022-12-07T16:59:31;9.27;;;3.90;;
9759;SDS011;4919;48.792;9.202;2022-12-07T17:01:58;9.20;;;3.83;;
9759;SDS011;4919;48.792;9.202;2022-12-07T17:04:24;7.17;;;3.53;;
9759;SDS011;4919;48.792;9.202;2022-12-07T17:06:52;10.50;;;4.30;;
9759;SDS011;4919;48.792;9.202;2022-12-07T17:09:18;14.33;;;4.50;;
9759;SDS011;4919;48.792;9.202;2022-12-07T17:11:47;10.23;;;5.03;;
9759;SDS011;4919;48.792;9.202;2022-12-07T17:14:14;8.37;;;4.10;;
9759;SDS011;4919;48.792;9.202;2022-12-07T17:17:00;6.07;;;3.83;;
9759;SDS011;4919;48.792;9.202;2022-12-07T17:19:27;6.90;;;4.23;;
9759;SDS011;4919;48.792;9.202;2022-12-07T17:21:54;8.57;;;4.13;;
9759;SDS011;4919;48.792;9.202;2022-12-07T17:24:21;7.27;;;3.97;;
9759;SDS011;4919;48.792;9.202;2022-12-07T17:26:48;44.33;;;25.87;;
9759;SDS011;4919;48.792;9.202;2022-12-07T17:29:15;59.77;;;30.47;;